Time;durP1;ratioP1;P1;durP2;ratioP2;P2;SDS_P1;SDS_P2;PMS_P1;PMS_P2;Temp;Humidity;BMP_temperature;BMP_pressure;BME280_temperature;BME280_humidity;BME280_pressure;Samples;Min_cycle;Max_cycle;Signal;HPM_P1;HPM_P2
2023/09/30 00:00:56;;;;;;;18.38;7.50;;;;;;;;;;5044798;28;20052;-86
2023/09/30 00:03:22;;;;;;;19.85;8.27;;;;;;;;;;5045928;28;20045;-86
2023/09/30 00:05:47;;;;;;;18.08;7.88;;;;;;;;;;5040266;28;20037;-86
2023/09/30 00:08:13;;;;;;;21.27;8.55;;;;;;;;;;5036465;28;20045;-86
2023/09/30 00:10:38;;;;;;;19.92;7.82;;;;;;;;;;5049790;28;20044;-86
2023/09/30 00:13:06;;;;;;;13.52;6.55;;;;;;;;;;5044479;28;20039;-85
2023/09/30 00:15:32;;;;;;;12.43;6.10;;;;;;;;;;5038830;28;20041;-86
2023/09/30 00:17:58;;;;;;;16.63;6.63;;;;;;;;;;5045323;28;20036;-86
2023/09/30 00:20:24;;;;;;;15.18;6.63;;;;;;;;;;5036206;28;20058;-86
2023/09/30 00:22:49;;;;;;;16.63;6.90;;;;;;;;;;5020961;28;20033;-86
2023/09/30 00:25:15;;;;;;;17.55;7.47;;;;;;;;;;5037735;28;20040;-86
2023/09/30 00:27:40;;;;;;;15.88;6.63;;;;;;;;;;5049294;28;20062;-86
2023/09/30 00:30:06;;;;;;;16.58;7.05;;;;;;;;;;5025726;28;20045;-86
2023/09/30 00:32:33;;;;;;;17.25;7.40;;;;;;;;;;5037583;28;20029;-86
2023/09/30 00:35:01;;;;;;;16.48;6.95;;;;;;;;;;5043487;28;20029;-86
2023/09/30 00:37:27;;;;;;;18.05;7.07;;;;;;;;;;5043752;28;20068;-86
2023/09/30 00:39:53;;;;;;;15.50;5.88;;;;;;;;;;5038505;28;20071;-86
2023/09/30 00:42:20;;;;;;;14.32;5.97;;;;;;;;;;5040155;28;20095;-85
2023/09/30 00:44:46;;;;;;;15.50;6.20;;;;;;;;;;5047353;28;20426;-86
2023/09/30 00:47:14;;;;;;;13.10;6.07;;;;;;;;;;5046338;28;20037;-86
2023/09/30 00:49:42;;;;;;;15.57;6.00;;;;;;;;;;5041024;28;20029;-86
2023/09/30 00:52:07;;;;;;;14.88;6.28;;;;;;;;;;5054438;28;20044;-86
2023/09/30 00:54:33;;;;;;;11.90;6.10;;;;;;;;;;5047644;28;20037;-86
2023/09/30 00:57:00;;;;;;;13.27;6.03;;;;;;;;;;5041845;28;20049;-86
2023/09/30 00:59:26;;;;;;;15.38;6.80;;;;;;;;;;5046616;28;20041;-84
2023/09/30 01:01:57;;;;;;;15.00;6.53;;;;;;;;;;5049534;28;20029;-86
2023/09/30 01:04:23;;;;;;;15.50;7.00;;;;;;;;;;5026559;28;20040;-86
2023/09/30 01:06:49;;;;;;;16.13;6.78;;;;;;;;;;5041332;28;20029;-84
2023/09/30 01:09:14;;;;;;;14.35;6.40;;;;;;;;;;5052995;28;20029;-86
2023/09/30 01:11:40;;;;;;;19.65;6.97;;;;;;;;;;5046836;28;20029;-86
2023/09/30 01:14:24;;;;;;;14.90;6.78;;;;;;;;;;5041813;28;20064;-86
2023/09/30 01:16:49;;;;;;;15.40;6.80;;;;;;;;;;5048888;28;20040;-86
2023/09/30 01:19:16;;;;;;;16.10;6.80;;;;;;;;;;5049517;28;20530;-87
2023/09/30 01:21:41;;;;;;;17.58;6.82;;;;;;;;;;5042631;28;20040;-87
2023/09/30 01:24:07;;;;;;;15.10;6.40;;;;;;;;;;5044594;28;20029;-86
2023/09/30 01:26:33;;;;;;;17.98;6.70;;;;;;;;;;5051321;28;20406;-86
2023/09/30 01:28:58;;;;;;;16.67;6.85;;;;;;;;;;5045784;28;20028;-86
2023/09/30 01:31:24;;;;;;;16.90;6.95;;;;;;;;;;5040189;28;20506;-86
2023/09/30 01:33:53;;;;;;;17.83;7.45;;;;;;;;;;5052259;28;20060;-86
2023/09/30 01:36:19;;;;;;;17.85;7.07;;;;;;;;;;5044058;28;20095;-86
2023/09/30 01:38:44;;;;;;;21.15;8.07;;;;;;;;;;5038367;28;20495;-86
2023/09/30 01:41:10;;;;;;;20.20;7.63;;;;;;;;;;5044726;28;20103;-86
2023/09/30 01:43:36;;;;;;;24.08;7.68;;;;;;;;;;5050185;28;20044;-86
2023/09/30 01:46:01;;;;;;;18.10;8.15;;;;;;;;;;5044922;28;20048;-86
2023/09/30 01:48:27;;;;;;;22.05;8.27;;;;;;;;;;5039932;28;20037;-86
2023/09/30 01:50:52;;;;;;;21.80;7.88;;;;;;;;;;5051679;28;20116;-86
2023/09/30 01:53:18;;;;;;;20.90;7.90;;;;;;;;;;5046190;28;20120;-86
2023/09/30 01:55:44;;;;;;;18.40;7.70;;;;;;;;;;5041334;28;20036;-86
2023/09/30 01:58:10;;;;;;;20.60;8.23;;;;;;;;;;5044541;28;20402;-86
2023/09/30 02:00:36;;;;;;;22.20;8.02;;;;;;;;;;5047432;28;20040;-86
2023/09/30 02:03:02;;;;;;;20.38;7.78;;;;;;;;;;5042239;28;20045;-86
2023/09/30 02:05:28;;;;;;;19.05;7.35;;;;;;;;;;5041427;28;20049;-86
2023/09/30 02:07:56;;;;;;;20.15;8.35;;;;;;;;;;5050524;28;20115;-84
2023/09/30 02:10:21;;;;;;;20.38;8.07;;;;;;;;;;5045972;28;20068;-86
2023/09/30 02:12:47;;;;;;;21.13;7.75;;;;;;;;;;5038814;28;20517;-85
2023/09/30 02:15:14;;;;;;;19.15;7.75;;;;;;;;;;5046085;28;20079;-86
2023/09/30 02:17:39;;;;;;;19.42;7.55;;;;;;;;;;5031490;28;20033;-85
2023/09/30 02:20:12;;;;;;;18.08;6.95;;;;;;;;;;5041292;28;20518;-86
2023/09/30 02:22:38;;;;;;;20.13;7.40;;;;;;;;;;5041077;28;20032;-85
2023/09/30 02:25:07;;;;;;;15.60;6.68;;;;;;;;;;5033429;28;20407;-86
2023/09/30 02:27:32;;;;;;;18.35;6.65;;;;;;;;;;5043190;28;20041;-85
2023/09/30 02:29:58;;;;;;;18.25;6.72;;;;;;;;;;5037488;28;20499;-86
2023/09/30 02:32:23;;;;;;;14.90;5.90;;;;;;;;;;5050580;28;20040;-86
2023/09/30 02:34:50;;;;;;;15.68;6.50;;;;;;;;;;5045902;28;20039;-86
2023/09/30 02:37:17;;;;;;;13.73;5.85;;;;;;;;;;5040232;28;20144;-85
2023/09/30 02:39:43;;;;;;;13.52;5.75;;;;;;;;;;5042054;28;20044;-85
2023/09/30 02:42:08;;;;;;;12.45;5.65;;;;;;;;;;5047707;28;20032;-86
2023/09/30 02:44:34;;;;;;;11.80;5.43;;;;;;;;;;5044143;28;20090;-86
2023/09/30 02:46:59;;;;;;;16.23;5.50;;;;;;;;;;5037549;28;20038;-85
2023/09/30 02:49:25;;;;;;;13.68;5.78;;;;;;;;;;5052168;28;20031;-85
2023/09/30 02:51:50;;;;;;;15.15;6.13;;;;;;;;;;5045942;28;20029;-85
2023/09/30 02:54:16;;;;;;;14.57;5.63;;;;;;;;;;5039940;28;20053;-85
2023/09/30 02:56:42;;;;;;;12.32;5.50;;;;;;;;;;5045843;28;20112;-85
2023/09/30 02:59:08;;;;;;;12.50;5.35;;;;;;;;;;5047679;28;20037;-85
2023/09/30 03:01:34;;;;;;;13.25;5.65;;;;;;;;;;5042120;28;20072;-86
2023/09/30 03:04:00;;;;;;;13.05;5.88;;;;;;;;;;5038890;28;20033;-86
2023/09/30 03:06:25;;;;;;;14.05;5.75;;;;;;;;;;5049031;28;20112;-85
2023/09/30 03:08:51;;;;;;;13.80;5.78;;;;;;;;;;5042807;28;20407;-86
2023/09/30 03:11:19;;;;;;;12.05;5.55;;;;;;;;;;5037203;28;20037;-85
2023/09/30 03:13:45;;;;;;;13.25;6.07;;;;;;;;;;5048326;28;20040;-85
2023/09/30 03:16:11;;;;;;;13.55;5.38;;;;;;;;;;5046574;28;20036;-85
2023/09/30 03:18:37;;;;;;;14.35;5.65;;;;;;;;;;5042174;28;20044;-86
2023/09/30 03:21:12;;;;;;;14.23;5.93;;;;;;;;;;5039407;28;20032;-85
2023/09/30 03:23:38;;;;;;;10.88;5.53;;;;;;;;;;5061272;28;20033;-86
2023/09/30 03:26:03;;;;;;;12.35;5.57;;;;;;;;;;5043532;28;20390;-86
2023/09/30 03:28:29;;;;;;;17.05;6.53;;;;;;;;;;5037514;28;20467;-86
2023/09/30 03:30:56;;;;;;;15.55;5.85;;;;;;;;;;5049927;28;20034;-86
2023/09/30 03:33:22;;;;;;;13.80;6.43;;;;;;;;;;5046230;28;20124;-86
2023/09/30 03:35:48;;;;;;;16.15;7.15;;;;;;;;;;5039854;28;20072;-86
2023/09/30 03:38:13;;;;;;;16.75;6.65;;;;;;;;;;5045417;28;20044;-85
2023/09/30 03:40:40;;;;;;;13.32;6.35;;;;;;;;;;5047854;28;20041;-85
2023/09/30 03:43:05;;;;;;;18.95;6.63;;;;;;;;;;5042248;28;20064;-85
2023/09/30 03:45:34;;;;;;;16.15;6.22;;;;;;;;;;5036339;28;20033;-85
2023/09/30 03:48:01;;;;;;;15.55;6.10;;;;;;;;;;5030707;28;20168;-86
2023/09/30 03:50:29;;;;;;;14.68;5.78;;;;;;;;;;5041852;28;20176;-85
2023/09/30 03:53:07;;;;;;;14.65;6.35;;;;;;;;;;5038732;28;20037;-85
2023/09/30 03:55:33;;;;;;;14.98;6.07;;;;;;;;;;5047879;28;20120;-86
2023/09/30 03:57:59;;;;;;;17.92;6.30;;;;;;;;;;5044048;28;20037;-85
2023/09/30 04:00:25;;;;;;;14.30;6.10;;;;;;;;;;5041164;28;20613;-84
2023/09/30 04:02:58;;;;;;;16.83;6.38;;;;;;;;;;5038987;28;20049;-86
2023/09/30 04:05:29;;;;;;;15.70;6.20;;;;;;;;;;5042507;28;20029;-85
2023/09/30 04:07:57;;;;;;;17.63;6.40;;;;;;;;;;5042690;28;20034;-86
2023/09/30 04:10:23;;;;;;;15.85;6.50;;;;;;;;;;5036839;28;20029;-86
2023/09/30 04:12:49;;;;;;;14.00;6.07;;;;;;;;;;5049828;28;20384;-86
2023/09/30 04:15:15;;;;;;;15.20;6.28;;;;;;;;;;5044833;28;20028;-86
2023/09/30 04:17:40;;;;;;;13.45;6.28;;;;;;;;;;5038250;28;20083;-86
2023/09/30 04:20:15;;;;;;;15.23;6.10;;;;;;;;;;5044670;28;20494;-86
2023/09/30 04:22:46;;;;;;;15.98;5.93;;;;;;;;;;5041789;28;20021;-85
2023/09/30 04:25:12;;;;;;;12.75;5.80;;;;;;;;;;5041137;28;20388;-85
2023/09/30 04:27:37;;;;;;;12.45;5.55;;;;;;;;;;5036095;28;20033;-86
2023/09/30 04:30:08;;;;;;;15.85;6.28;;;;;;;;;;5049022;28;20041;-85
2023/09/30 04:32:38;;;;;;;14.77;6.00;;;;;;;;;;5042081;28;20033;-85
2023/09/30 04:35:10;;;;;;;13.30;5.22;;;;;;;;;;5031454;28;20091;-85
2023/09/30 04:37:37;;;;;;;14.15;5.72;;;;;;;;;;5046958;28;20052;-86
2023/09/30 04:40:08;;;;;;;16.48;6.40;;;;;;;;;;5045955;28;20089;-86
2023/09/30 04:42:36;;;;;;;16.27;6.13;;;;;;;;;;5037491;28;20044;-86
2023/09/30 04:45:04;;;;;;;15.68;6.72;;;;;;;;;;5040872;28;20040;-86
2023/09/30 04:47:29;;;;;;;16.90;6.13;;;;;;;;;;5047258;28;20052;-85
2023/09/30 04:49:56;;;;;;;16.85;6.80;;;;;;;;;;5041227;28;20033;-86
2023/09/30 04:52:26;;;;;;;15.30;6.32;;;;;;;;;;5036164;28;20099;-87
2023/09/30 04:54:52;;;;;;;15.05;6.43;;;;;;;;;;5030222;28;20041;-86
2023/09/30 04:57:19;;;;;;;14.23;6.25;;;;;;;;;;5024950;28;20609;-86
2023/09/30 04:59:46;;;;;;;15.70;5.93;;;;;;;;;;5019058;28;20529;-86
2023/09/30 05:02:14;;;;;;;18.80;6.72;;;;;;;;;;5043371;28;20096;-86
2023/09/30 05:04:40;;;;;;;17.15;6.90;;;;;;;;;;5047327;28;20029;-86
2023/09/30 05:07:05;;;;;;;15.48;6.85;;;;;;;;;;5048199;28;20086;-86
2023/09/30 05:09:31;;;;;;;16.88;6.43;;;;;;;;;;5038664;28;20045;-86
2023/09/30 05:11:57;;;;;;;15.38;6.32;;;;;;;;;;5048122;28;20517;-86
2023/09/30 05:14:22;;;;;;;17.52;6.45;;;;;;;;;;5043148;28;20041;-86
2023/09/30 05:16:48;;;;;;;18.20;6.72;;;;;;;;;;5037641;28;20045;-86
2023/09/30 05:19:13;;;;;;;19.73;6.75;;;;;;;;;;5047005;28;20068;-86
2023/09/30 05:21:39;;;;;;;17.48;6.82;;;;;;;;;;5045394;28;20041;-86
2023/09/30 05:24:05;;;;;;;14.95;6.47;;;;;;;;;;5040032;28;20033;-85
2023/09/30 05:26:31;;;;;;;15.63;6.30;;;;;;;;;;5036754;28;20029;-85
2023/09/30 05:28:56;;;;;;;15.93;6.88;;;;;;;;;;5046653;28;20055;-86
2023/09/30 05:31:22;;;;;;;16.90;6.75;;;;;;;;;;5042411;28;20099;-86
2023/09/30 05:33:47;;;;;;;14.75;6.28;;;;;;;;;;5040044;28;20072;-86
2023/09/30 05:36:13;;;;;;;14.90;6.38;;;;;;;;;;5048714;28;20092;-85
2023/09/30 05:38:39;;;;;;;16.45;6.53;;;;;;;;;;5048612;28;20041;-86
2023/09/30 05:41:06;;;;;;;13.38;5.88;;;;;;;;;;5043188;28;20029;-86
2023/09/30 05:43:32;;;;;;;14.15;6.20;;;;;;;;;;5041277;28;20112;-86
2023/09/30 05:45:58;;;;;;;16.17;6.32;;;;;;;;;;5051424;28;20115;-86
2023/09/30 05:48:24;;;;;;;15.98;6.55;;;;;;;;;;5042957;28;20084;-86
2023/09/30 05:50:49;;;;;;;15.65;6.43;;;;;;;;;;5034632;28;20033;-86
2023/09/30 05:53:15;;;;;;;15.38;6.00;;;;;;;;;;5048652;28;20033;-86
2023/09/30 05:55:42;;;;;;;17.35;6.13;;;;;;;;;;5048579;28;20037;-86
2023/09/30 05:58:09;;;;;;;13.73;5.95;;;;;;;;;;5042542;28;20135;-86
2023/09/30 06:00:35;;;;;;;13.60;5.82;;;;;;;;;;5044100;28;20103;-86
2023/09/30 06:03:01;;;;;;;18.13;7.00;;;;;;;;;;5049980;28;20498;-86
2023/09/30 06:05:27;;;;;;;16.80;6.38;;;;;;;;;;5045142;28;20040;-86
2023/09/30 06:07:54;;;;;;;14.65;6.72;;;;;;;;;;5040000;28;20042;-86
2023/09/30 06:10:19;;;;;;;14.25;6.07;;;;;;;;;;5050690;28;20094;-87
2023/09/30 06:12:49;;;;;;;17.38;6.60;;;;;;;;;;5047947;28;20097;-85
2023/09/30 06:15:21;;;;;;;17.30;6.65;;;;;;;;;;5042590;28;20123;-86
2023/09/30 06:17:48;;;;;;;16.48;6.50;;;;;;;;;;5042364;28;20065;-86
2023/09/30 06:20:17;;;;;;;16.70;6.60;;;;;;;;;;5051094;28;20083;-85
2023/09/30 06:22:45;;;;;;;15.15;6.50;;;;;;;;;;5045075;28;20040;-85
2023/09/30 06:25:12;;;;;;;17.25;6.55;;;;;;;;;;5039335;28;20041;-85
2023/09/30 06:27:38;;;;;;;16.17;6.78;;;;;;;;;;5064989;28;20032;-86
2023/09/30 06:30:04;;;;;;;14.55;6.15;;;;;;;;;;5047725;28;20103;-86
2023/09/30 06:32:30;;;;;;;15.90;6.68;;;;;;;;;;5041048;28;20553;-86
2023/09/30 06:34:56;;;;;;;15.63;6.55;;;;;;;;;;5039138;28;20032;-85
2023/09/30 06:37:21;;;;;;;17.08;6.82;;;;;;;;;;5048547;28;20032;-87
2023/09/30 06:39:48;;;;;;;19.55;6.65;;;;;;;;;;5044479;28;20128;-86
2023/09/30 06:42:13;;;;;;;16.75;6.75;;;;;;;;;;5037688;28;20069;-86
2023/09/30 06:44:39;;;;;;;17.75;6.63;;;;;;;;;;5045012;28;20142;-86
2023/09/30 06:47:05;;;;;;;15.00;6.40;;;;;;;;;;5047243;28;20380;-86
2023/09/30 06:49:34;;;;;;;13.93;6.18;;;;;;;;;;5038903;28;20048;-85
2023/09/30 06:51:59;;;;;;;18.48;6.93;;;;;;;;;;5040785;28;20486;-83
2023/09/30 06:54:24;;;;;;;16.05;6.63;;;;;;;;;;5048703;28;20029;-86
2023/09/30 06:56:50;;;;;;;19.63;7.78;;;;;;;;;;5037242;28;20575;-86
2023/09/30 06:59:15;;;;;;;20.00;7.70;;;;;;;;;;5037799;28;20103;-85
2023/09/30 07:01:41;;;;;;;20.45;7.95;;;;;;;;;;5050326;28;20116;-86
2023/09/30 07:04:06;;;;;;;19.13;7.97;;;;;;;;;;5045509;28;20457;-86
2023/09/30 07:06:32;;;;;;;18.38;7.60;;;;;;;;;;5038465;28;20049;-86
2023/09/30 07:08:57;;;;;;;17.30;6.97;;;;;;;;;;5041696;28;20395;-86
2023/09/30 07:11:32;;;;;;;19.02;7.10;;;;;;;;;;5048210;28;20037;-87
2023/09/30 07:13:58;;;;;;;19.42;7.40;;;;;;;;;;5042589;28;20037;-85
2023/09/30 07:16:23;;;;;;;20.10;7.53;;;;;;;;;;5037805;28;20124;-87
2023/09/30 07:18:50;;;;;;;19.92;7.88;;;;;;;;;;5051737;28;20056;-86
2023/09/30 07:21:16;;;;;;;18.50;7.40;;;;;;;;;;5044672;28;20030;-85
2023/09/30 07:23:41;;;;;;;18.08;7.47;;;;;;;;;;5039488;28;20036;-86
2023/09/30 07:26:07;;;;;;;19.80;7.40;;;;;;;;;;5044426;28;20048;-86
2023/09/30 07:28:33;;;;;;;22.85;7.85;;;;;;;;;;5047688;28;20041;-86
2023/09/30 07:30:59;;;;;;;19.17;7.10;;;;;;;;;;5041513;28;20047;-86
2023/09/30 07:33:24;;;;;;;20.33;7.38;;;;;;;;;;5037328;28;20033;-85
2023/09/30 07:35:50;;;;;;;17.35;7.35;;;;;;;;;;5045767;28;20410;-86
2023/09/30 07:38:16;;;;;;;20.80;7.53;;;;;;;;;;5042532;28;20394;-85
2023/09/30 07:40:41;;;;;;;17.35;7.32;;;;;;;;;;5036210;28;20043;-85
2023/09/30 07:43:07;;;;;;;19.42;8.00;;;;;;;;;;5043582;28;20047;-85
2023/09/30 07:45:32;;;;;;;20.20;7.63;;;;;;;;;;5040534;28;20035;-85
2023/09/30 07:48:04;;;;;;;16.80;7.25;;;;;;;;;;5039514;28;20068;-86
2023/09/30 07:50:29;;;;;;;20.08;7.65;;;;;;;;;;5018288;28;20060;-85
2023/09/30 07:52:55;;;;;;;19.77;7.70;;;;;;;;;;5043259;28;20403;-86
2023/09/30 07:55:20;;;;;;;19.05;7.60;;;;;;;;;;5042571;28;20099;-85
2023/09/30 07:57:46;;;;;;;18.70;7.47;;;;;;;;;;5039090;28;20119;-87
2023/09/30 08:00:15;;;;;;;20.58;7.63;;;;;;;;;;5048909;28;20102;-86
2023/09/30 08:02:41;;;;;;;19.65;7.53;;;;;;;;;;5043638;28;20032;-86
2023/09/30 08:05:08;;;;;;;18.65;7.30;;;;;;;;;;5037446;28;20178;-86
2023/09/30 08:07:34;;;;;;;18.75;7.28;;;;;;;;;;5040981;28;20048;-87
2023/09/30 08:10:00;;;;;;;23.17;7.82;;;;;;;;;;5046710;28;20407;-86
2023/09/30 08:12:25;;;;;;;22.38;8.23;;;;;;;;;;5040402;28;20037;-87
2023/09/30 08:14:51;;;;;;;20.95;8.23;;;;;;;;;;5036860;28;20103;-87
2023/09/30 08:17:17;;;;;;;19.58;7.75;;;;;;;;;;5044149;28;20040;-88
2023/09/30 08:19:44;;;;;;;19.80;7.80;;;;;;;;;;5044335;28;20045;-87
2023/09/30 08:22:09;;;;;;;23.35;7.80;;;;;;;;;;5037806;28;20085;-87
2023/09/30 08:24:35;;;;;;;19.63;7.40;;;;;;;;;;5047776;28;20029;-87
2023/09/30 08:27:01;;;;;;;20.02;7.72;;;;;;;;;;5045778;28;20481;-87
2023/09/30 08:29:27;;;;;;;19.27;7.57;;;;;;;;;;5040265;28;20041;-87
2023/09/30 08:31:52;;;;;;;19.90;7.30;;;;;;;;;;5037517;28;20069;-87
2023/09/30 08:34:19;;;;;;;20.15;7.95;;;;;;;;;;5049086;28;20037;-87
2023/09/30 08:36:45;;;;;;;25.50;8.15;;;;;;;;;;5043426;28;20041;-87
2023/09/30 08:39:10;;;;;;;18.50;7.70;;;;;;;;;;5037437;28;20098;-87
2023/09/30 08:41:36;;;;;;;18.92;8.13;;;;;;;;;;5049169;28;20029;-87
2023/09/30 08:44:03;;;;;;;25.88;8.45;;;;;;;;;;5044706;28;20407;-87
2023/09/30 08:46:36;;;;;;;20.38;8.27;;;;;;;;;;5039922;28;20534;-86
2023/09/30 08:49:03;;;;;;;21.90;8.10;;;;;;;;;;5023141;28;20041;-85
2023/09/30 08:51:29;;;;;;;26.52;8.52;;;;;;;;;;5046444;28;20041;-86
2023/09/30 08:53:56;;;;;;;23.05;8.32;;;;;;;;;;5041585;28;20559;-86
2023/09/30 08:56:27;;;;;;;22.08;8.63;;;;;;;;;;5035270;28;20510;-85
2023/09/30 08:59:00;;;;;;;19.45;8.18;;;;;;;;;;5048187;28;20041;-86
2023/09/30 09:01:30;;;;;;;20.63;8.30;;;;;;;;;;5014795;28;20048;-84
2023/09/30 09:03:56;;;;;;;20.02;7.93;;;;;;;;;;5036580;28;20034;-83
2023/09/30 09:06:25;;;;;;;23.38;7.85;;;;;;;;;;5048267;28;20040;-84
2023/09/30 09:08:51;;;;;;;18.10;7.10;;;;;;;;;;5052288;28;20044;-86
2023/09/30 09:11:17;;;;;;;20.35;7.97;;;;;;;;;;5044002;28;20029;-85
2023/09/30 09:13:53;;;;;;;20.27;8.07;;;;;;;;;;5030619;28;20033;-84
2023/09/30 09:16:18;;;;;;;23.27;8.93;;;;;;;;;;5049777;28;20558;-85
2023/09/30 09:18:44;;;;;;;21.17;8.25;;;;;;;;;;5044148;28;20032;-83
2023/09/30 09:21:23;;;;;;;21.33;8.45;;;;;;;;;;5039163;28;20455;-83
2023/09/30 09:23:51;;;;;;;23.25;8.73;;;;;;;;;;5050198;28;20041;-83
2023/09/30 09:26:30;;;;;;;24.10;8.93;;;;;;;;;;5048020;28;20037;-82
2023/09/30 09:29:03;;;;;;;24.92;8.23;;;;;;;;;;5038951;28;20110;-82
2023/09/30 09:31:30;;;;;;;;;;;;;;;;;;5048653;28;20037;-84
2023/09/30 09:33:57;;;;;;;21.20;8.55;;;;;;;;;;5050404;28;19913;-83
2023/09/30 09:36:41;;;;;;;21.52;8.38;;;;;;;;;;5043294;28;20055;-84
2023/09/30 09:39:07;;;;;;;27.05;8.98;;;;;;;;;;5042952;28;20105;-85
2023/09/30 09:41:48;;;;;;;22.60;8.32;;;;;;;;;;5050462;28;20076;-84
2023/09/30 09:44:14;;;;;;;20.55;8.10;;;;;;;;;;5044388;28;20048;-83
2023/09/30 09:46:40;;;;;;;24.08;8.55;;;;;;;;;;5049356;28;20030;-84
2023/09/30 09:49:06;;;;;;;23.55;8.88;;;;;;;;;;5051248;28;20045;-84
2023/09/30 09:51:31;;;;;;;23.80;8.40;;;;;;;;;;5046327;28;20037;-84
2023/09/30 09:53:57;;;;;;;23.15;8.52;;;;;;;;;;5038875;28;20038;-85
2023/09/30 09:56:23;;;;;;;21.23;8.50;;;;;;;;;;5046963;28;20040;-84
2023/09/30 09:58:49;;;;;;;23.92;8.48;;;;;;;;;;5048800;28;20034;-84
2023/09/30 10:01:15;;;;;;;23.02;8.18;;;;;;;;;;5042260;28;20109;-84
2023/09/30 10:03:42;;;;;;;24.80;8.60;;;;;;;;;;5044466;28;20065;-84
2023/09/30 10:06:09;;;;;;;21.30;7.88;;;;;;;;;;5050093;28;20067;-84
2023/09/30 10:08:42;;;;;;;23.13;9.27;;;;;;;;;;5044441;28;20041;-85
2023/09/30 10:11:09;;;;;;;20.70;7.75;;;;;;;;;;5038151;28;20056;-84
2023/09/30 10:13:55;;;;;;;20.05;8.35;;;;;;;;;;5048423;28;20045;-85
2023/09/30 10:16:36;;;;;;;22.00;7.88;;;;;;;;;;5043184;28;20028;-85
2023/09/30 10:19:15;;;;;;;21.27;9.07;;;;;;;;;;5038070;28;20076;-83
2023/09/30 10:22:27;;;;;;;24.35;8.45;;;;;;;;;;5049058;28;20123;-84
2023/09/30 10:24:57;;;;;;;21.75;8.25;;;;;;;;;;5043926;28;20068;-83
2023/09/30 10:27:28;;;;;;;24.10;8.30;;;;;;;;;;5039654;28;20044;-83
2023/09/30 10:29:58;;;;;;;23.98;8.30;;;;;;;;;;5048885;28;20033;-83
2023/09/30 10:32:52;;;;;;;23.63;8.52;;;;;;;;;;5041829;28;20037;-83
2023/09/30 10:35:18;;;;;;;24.90;8.05;;;;;;;;;;5038596;28;20060;-83
2023/09/30 10:37:44;;;;;;;26.15;8.48;;;;;;;;;;5043546;28;20041;-84
2023/09/30 10:40:25;;;;;;;21.50;8.50;;;;;;;;;;5047448;28;20045;-83
2023/09/30 10:42:52;;;;;;;19.60;8.45;;;;;;;;;;5041337;28;20090;-83
2023/09/30 10:45:36;;;;;;;20.38;8.15;;;;;;;;;;5040066;28;20040;-84
2023/09/30 10:48:33;;;;;;;21.95;8.65;;;;;;;;;;5047083;28;20037;-84
2023/09/30 10:51:11;;;;;;;22.25;8.25;;;;;;;;;;5056485;28;20391;-83
2023/09/30 10:54:00;;;;;;;21.52;8.73;;;;;;;;;;5038059;28;20039;-83
2023/09/30 10:56:33;;;;;;;23.52;8.48;;;;;;;;;;5042884;28;20078;-84
2023/09/30 10:58:59;;;;;;;24.65;8.93;;;;;;;;;;5042733;28;20037;-85
2023/09/30 11:01:25;;;;;;;20.60;8.00;;;;;;;;;;5036725;28;20033;-84
2023/09/30 11:04:01;;;;;;;22.52;8.35;;;;;;;;;;5048147;28;20040;-83
2023/09/30 11:06:27;;;;;;;20.60;8.35;;;;;;;;;;5044905;28;20044;-84
2023/09/30 11:08:55;;;;;;;23.55;8.88;;;;;;;;;;5037862;28;20037;-83
2023/09/30 11:11:35;;;;;;;22.08;8.90;;;;;;;;;;5041416;28;20048;-84
2023/09/30 11:14:02;;;;;;;21.73;8.70;;;;;;;;;;5045812;28;20135;-83
2023/09/30 11:16:28;;;;;;;19.95;7.70;;;;;;;;;;5040685;28;20406;-84
2023/09/30 11:18:54;;;;;;;22.98;8.50;;;;;;;;;;5041166;28;20055;-84
2023/09/30 11:21:22;;;;;;;21.70;8.70;;;;;;;;;;5048094;28;20040;-84
2023/09/30 11:23:47;;;;;;;20.67;8.23;;;;;;;;;;5038812;28;20041;-83
2023/09/30 11:26:14;;;;;;;22.10;8.75;;;;;;;;;;5037110;28;20553;-84
2023/09/30 11:28:41;;;;;;;20.98;8.10;;;;;;;;;;5047906;28;20159;-84
2023/09/30 11:31:11;;;;;;;21.90;8.85;;;;;;;;;;5045085;28;20037;-83
2023/09/30 11:33:51;;;;;;;23.35;8.38;;;;;;;;;;5037243;28;20164;-84
2023/09/30 11:36:19;;;;;;;23.08;8.52;;;;;;;;;;5043402;28;20033;-85
2023/09/30 11:38:49;;;;;;;21.05;8.75;;;;;;;;;;5047313;28;20052;-84
2023/09/30 11:41:17;;;;;;;22.65;8.80;;;;;;;;;;5040308;28;20032;-84
2023/09/30 11:44:02;;;;;;;21.17;8.40;;;;;;;;;;5036508;28;20037;-84
2023/09/30 11:46:27;;;;;;;21.85;8.35;;;;;;;;;;5048344;28;20048;-85
2023/09/30 11:48:59;;;;;;;21.27;8.77;;;;;;;;;;5042551;28;20171;-84
2023/09/30 11:51:26;;;;;;;21.40;8.18;;;;;;;;;;5033292;28;20038;-84
2023/09/30 11:53:56;;;;;;;20.33;7.93;;;;;;;;;;5048804;28;20030;-84
2023/09/30 11:56:27;;;;;;;24.10;8.57;;;;;;;;;;5043414;28;20033;-83
2023/09/30 11:58:53;;;;;;;23.33;8.82;;;;;;;;;;5038364;28;20128;-83
2023/09/30 12:01:21;;;;;;;23.63;9.25;;;;;;;;;;5044740;28;20372;-84
2023/09/30 12:03:51;;;;;;;24.42;9.00;;;;;;;;;;5045247;28;20033;-84
2023/09/30 12:06:17;;;;;;;23.05;8.65;;;;;;;;;;5039416;28;20037;-83
2023/09/30 12:08:43;;;;;;;20.65;8.32;;;;;;;;;;5038938;28;20112;-81
2023/09/30 12:11:12;;;;;;;22.80;8.95;;;;;;;;;;5049530;28;20191;-84
2023/09/30 12:13:38;;;;;;;30.83;13.65;;;;;;;;;;5042316;28;20045;-85
2023/09/30 12:16:04;;;;;;;23.02;9.10;;;;;;;;;;5037460;28;20094;-84
2023/09/30 12:18:30;;;;;;;26.02;9.50;;;;;;;;;;5049806;28;20032;-82
2023/09/30 12:20:56;;;;;;;25.17;9.55;;;;;;;;;;5051511;28;20051;-82
2023/09/30 12:23:21;;;;;;;27.08;9.50;;;;;;;;;;5044468;28;20045;-83
2023/09/30 12:25:48;;;;;;;25.25;10.10;;;;;;;;;;5046009;28;20037;-84
2023/09/30 12:28:15;;;;;;;26.50;10.25;;;;;;;;;;5046005;28;20120;-83
2023/09/30 12:30:40;;;;;;;23.77;9.73;;;;;;;;;;5042362;28;20042;-84
2023/09/30 12:33:07;;;;;;;25.48;9.80;;;;;;;;;;5036853;28;20052;-85
2023/09/30 12:35:33;;;;;;;28.88;11.00;;;;;;;;;;5054406;28;20037;-84
2023/09/30 12:37:59;;;;;;;25.70;9.70;;;;;;;;;;5043412;28;20052;-83
2023/09/30 12:40:25;;;;;;;28.73;10.77;;;;;;;;;;5039736;28;20042;-84
2023/09/30 12:42:50;;;;;;;23.58;9.60;;;;;;;;;;5046609;28;20655;-84
2023/09/30 12:45:17;;;;;;;24.58;9.95;;;;;;;;;;5051253;28;20598;-84
2023/09/30 12:47:43;;;;;;;26.45;10.18;;;;;;;;;;5041465;28;20045;-84
2023/09/30 12:50:09;;;;;;;27.02;10.02;;;;;;;;;;5041420;28;20060;-85
2023/09/30 12:52:35;;;;;;;26.30;9.90;;;;;;;;;;5053061;28;20652;-84
2023/09/30 12:55:01;;;;;;;25.23;9.93;;;;;;;;;;5046681;28;20045;-82
2023/09/30 12:57:26;;;;;;;25.85;10.25;;;;;;;;;;5040587;28;20070;-82
2023/09/30 12:59:53;;;;;;;26.58;10.23;;;;;;;;;;5046777;28;20029;-84
2023/09/30 13:02:19;;;;;;;29.70;10.25;;;;;;;;;;5047698;28;20095;-84
2023/09/30 13:04:46;;;;;;;27.75;10.43;;;;;;;;;;5043613;28;20045;-85
2023/09/30 13:07:12;;;;;;;26.08;10.02;;;;;;;;;;5041259;28;20075;-84
2023/09/30 13:09:41;;;;;;;29.27;9.95;;;;;;;;;;5052100;28;20498;-84
2023/09/30 13:12:07;;;;;;;25.67;10.45;;;;;;;;;;5046154;28;20041;-84
2023/09/30 13:14:33;;;;;;;25.67;10.35;;;;;;;;;;5038230;28;20048;-84
2023/09/30 13:16:58;;;;;;;26.92;10.45;;;;;;;;;;5051308;28;20040;-84
2023/09/30 13:19:24;;;;;;;24.90;10.50;;;;;;;;;;5048625;28;20026;-84
2023/09/30 13:21:50;;;;;;;24.95;9.88;;;;;;;;;;5042467;28;20060;-83
2023/09/30 13:24:16;;;;;;;25.45;10.15;;;;;;;;;;5042018;28;20040;-84
2023/09/30 13:26:41;;;;;;;29.13;10.40;;;;;;;;;;5050445;28;20033;-84
2023/09/30 13:29:09;;;;;;;30.33;10.68;;;;;;;;;;5045225;28;20048;-84
2023/09/30 13:31:37;;;;;;;27.73;10.68;;;;;;;;;;5038482;28;20037;-84
2023/09/30 13:34:04;;;;;;;25.27;10.50;;;;;;;;;;5052097;28;20044;-84
2023/09/30 13:36:29;;;;;;;28.95;10.73;;;;;;;;;;5040565;28;20383;-84
2023/09/30 13:38:55;;;;;;;26.73;10.23;;;;;;;;;;5040599;28;20063;-84
2023/09/30 13:41:21;;;;;;;23.92;9.82;;;;;;;;;;5043782;28;20029;-84
2023/09/30 13:43:46;;;;;;;27.30;10.10;;;;;;;;;;5048896;28;20036;-84
2023/09/30 13:46:12;;;;;;;25.58;9.88;;;;;;;;;;5044282;28;20033;-84
2023/09/30 13:48:38;;;;;;;24.67;9.95;;;;;;;;;;5038738;28;20116;-85
2023/09/30 13:51:08;;;;;;;30.40;10.82;;;;;;;;;;5051340;28;20052;-85
2023/09/30 13:53:33;;;;;;;24.88;10.15;;;;;;;;;;5044602;28;20077;-84
2023/09/30 13:55:59;;;;;;;28.33;10.52;;;;;;;;;;5039949;28;20037;-83
2023/09/30 13:58:25;;;;;;;26.75;10.60;;;;;;;;;;5048499;28;20043;-83
2023/09/30 14:00:53;;;;;;;24.92;9.70;;;;;;;;;;5045605;28;20038;-84
2023/09/30 14:03:19;;;;;;;26.42;10.05;;;;;;;;;;5042131;28;20037;-84
2023/09/30 14:05:46;;;;;;;25.05;9.75;;;;;;;;;;5042232;28;20062;-84
2023/09/30 14:08:12;;;;;;;24.20;9.50;;;;;;;;;;5048811;28;20060;-84
2023/09/30 14:10:37;;;;;;;24.20;9.68;;;;;;;;;;5039665;28;20036;-82
2023/09/30 14:13:03;;;;;;;27.05;9.90;;;;;;;;;;5038626;28;20038;-83
2023/09/30 14:15:30;;;;;;;23.90;9.65;;;;;;;;;;5049195;28;20047;-82
2023/09/30 14:17:59;;;;;;;24.85;9.63;;;;;;;;;;5047332;28;20038;-85
2023/09/30 14:20:25;;;;;;;25.20;9.82;;;;;;;;;;5039894;28;20029;-83
2023/09/30 14:22:51;;;;;;;27.45;9.80;;;;;;;;;;5043947;28;20059;-84
2023/09/30 14:25:17;;;;;;;26.05;9.45;;;;;;;;;;5049696;28;20143;-84
2023/09/30 14:27:43;;;;;;;26.95;10.43;;;;;;;;;;5040747;28;20120;-84
2023/09/30 14:30:09;;;;;;;24.35;9.30;;;;;;;;;;5037235;28;20065;-84